Terminal Aerodrome Forecast
Issued by NWS Austin/San Antonio, TX

Home | Current Version | Previous Version | Text Only | Print | Product List | Glossary On
Versions: 1 2 3 4 5 6 7 8 9 10 11 12 13 14 15
000
FTUS44 KEWX 271740
TAFAUS
TAF
KAUS 271740Z 2718/2824 07005KT P6SM BKN040
      TEMPO 2719/2723 VRB15G25KT 5SM -TSRA BKN040CB
     FM281200 VRB03KT P6SM BKN025
     FM281600 06008KT P6SM SCT025 BKN040=

USA.gov is the U.S. government's official web portal to all federal, state and local government web resources and services.